Terminal Aerodrome Forecast
Issued by NWS

Current Version | Previous Version | Text Only | Print | Product List | Glossary On
Versions: 1 2 3 4 5 6 7 8 9 10 11 12 13 14
503
FTUS42 KMLB 200529
TAFISM
TAF
KISM 200529Z 2006/2106 04006KT P6SM SCT025 SCT050
     FM201400 05013G21KT P6SM SCT025 SCT050
     FM210000 05009KT P6SM FEW025=

USA.gov is the U.S. government's official web portal to all federal, state and local government web resources and services.